Time;durP1;ratioP1;P1;durP2;ratioP2;P2;SDS_P1;SDS_P2;PMS_P1;PMS_P2;Temp;Humidity;BMP_temperature;BMP_pressure;BME280_temperature;BME280_humidity;BME280_pressure;Samples;Min_cycle;Max_cycle;Signal;HPM_P1;HPM_P2
2023/04/06 00:00:17;;;;;;;7.30;5.25;;;;;;;;;;6241661;28;20052;-73
2023/04/06 00:03:19;;;;;;;12.45;5.35;;;;;;;;;;6239047;28;20069;-74
2023/04/06 00:06:21;;;;;;;9.52;5.28;;;;;;;;;;6241901;28;20060;-74
2023/04/06 00:09:24;;;;;;;12.25;5.03;;;;;;;;;;6239807;28;20116;-74
2023/04/06 00:12:26;;;;;;;8.73;5.22;;;;;;;;;;6239702;28;20045;-74
2023/04/06 00:15:28;;;;;;;8.68;5.55;;;;;;;;;;6238694;28;20049;-73
2023/04/06 00:18:30;;;;;;;8.57;5.22;;;;;;;;;;6235691;28;20053;-73
2023/04/06 00:21:32;;;;;;;8.80;5.68;;;;;;;;;;6242660;28;20053;-73
2023/04/06 00:24:35;;;;;;;9.75;5.35;;;;;;;;;;6240674;28;20053;-73
2023/04/06 00:27:37;;;;;;;9.82;5.13;;;;;;;;;;6240695;28;20127;-74
2023/04/06 00:30:38;;;;;;;11.27;5.78;;;;;;;;;;6237367;28;20345;-74
2023/04/06 00:33:40;;;;;;;8.15;5.25;;;;;;;;;;6241228;28;20064;-74
2023/04/06 00:36:42;;;;;;;7.35;5.53;;;;;;;;;;6240404;28;20064;-74
2023/04/06 00:39:45;;;;;;;9.52;5.63;;;;;;;;;;6239432;28;20049;-74
2023/04/06 00:42:47;;;;;;;7.78;4.95;;;;;;;;;;6239941;28;20246;-73
2023/04/06 00:45:49;;;;;;;8.20;5.35;;;;;;;;;;6241298;28;20234;-73
2023/04/06 00:48:52;;;;;;;7.65;4.93;;;;;;;;;;6240352;28;20804;-73
2023/04/06 00:51:54;;;;;;;8.73;5.10;;;;;;;;;;6236934;28;20057;-73
2023/04/06 00:54:57;;;;;;;10.88;5.35;;;;;;;;;;6239999;28;20062;-74
2023/04/06 00:58:00;;;;;;;7.70;5.53;;;;;;;;;;6239100;28;20060;-74
2023/04/06 01:01:02;;;;;;;10.25;5.45;;;;;;;;;;6238751;28;20061;-73
2023/04/06 01:04:04;;;;;;;9.65;6.15;;;;;;;;;;6240488;28;20050;-74
2023/04/06 01:07:05;;;;;;;8.73;4.95;;;;;;;;;;6240775;28;20241;-74
2023/04/06 01:10:09;;;;;;;9.40;5.68;;;;;;;;;;6239629;28;20053;-73
2023/04/06 01:13:11;;;;;;;9.25;5.30;;;;;;;;;;6237980;28;20325;-74
2023/04/06 01:16:13;;;;;;;7.55;4.90;;;;;;;;;;6239626;28;20046;-74
2023/04/06 01:19:14;;;;;;;8.45;5.18;;;;;;;;;;6236974;28;20054;-74
2023/04/06 01:22:28;;;;;;;9.57;5.50;;;;;;;;;;6241239;28;20046;-74
2023/04/06 01:25:29;;;;;;;7.28;5.22;;;;;;;;;;6238680;28;20105;-73
2023/04/06 01:28:31;;;;;;;8.23;5.20;;;;;;;;;;6240983;28;20068;-74
2023/04/06 01:31:33;;;;;;;13.52;5.70;;;;;;;;;;6241450;28;20093;-74
2023/04/06 01:34:34;;;;;;;7.88;5.40;;;;;;;;;;6244254;28;20804;-74
2023/04/06 01:37:38;;;;;;;7.93;5.45;;;;;;;;;;6243206;28;20045;-74
2023/04/06 01:40:39;;;;;;;9.40;5.53;;;;;;;;;;6243891;28;20215;-73
2023/04/06 01:43:41;;;;;;;10.70;6.65;;;;;;;;;;6241245;28;20413;-73
2023/04/06 01:46:43;;;;;;;10.15;6.15;;;;;;;;;;6242050;28;20053;-73
2023/04/06 01:49:44;;;;;;;11.30;6.18;;;;;;;;;;6245404;28;20095;-73
2023/04/06 01:52:47;;;;;;;9.60;6.25;;;;;;;;;;6240679;28;20344;-73
2023/04/06 01:55:49;;;;;;;11.75;6.07;;;;;;;;;;6241372;28;20371;-74
2023/04/06 01:58:51;;;;;;;10.27;6.32;;;;;;;;;;6239181;28;20050;-74
2023/04/06 02:01:53;;;;;;;10.05;6.50;;;;;;;;;;6242992;28;20113;-72
2023/04/06 02:04:54;;;;;;;9.75;6.53;;;;;;;;;;6240013;28;20059;-72
2023/04/06 02:07:57;;;;;;;9.38;6.30;;;;;;;;;;6241154;28;20108;-73
2023/04/06 02:10:59;;;;;;;8.48;6.40;;;;;;;;;;6237815;28;20061;-73
2023/04/06 02:14:01;;;;;;;12.05;6.35;;;;;;;;;;6245842;28;20066;-74
2023/04/06 02:17:03;;;;;;;9.57;6.55;;;;;;;;;;6243439;28;20071;-73
2023/04/06 02:20:05;;;;;;;11.15;6.68;;;;;;;;;;6248184;28;20080;-74
2023/04/06 02:23:08;;;;;;;9.95;5.93;;;;;;;;;;6242187;28;20061;-74
2023/04/06 02:26:10;;;;;;;8.48;6.05;;;;;;;;;;6244065;28;20057;-73
2023/04/06 02:29:12;;;;;;;9.00;6.43;;;;;;;;;;6242164;28;20056;-73
2023/04/06 02:32:14;;;;;;;10.77;6.50;;;;;;;;;;6240154;28;20065;-73
2023/04/06 02:35:15;;;;;;;9.70;6.40;;;;;;;;;;6241276;28;20041;-74
2023/04/06 02:38:19;;;;;;;9.88;6.28;;;;;;;;;;6241060;28;20063;-74
2023/04/06 02:41:20;;;;;;;8.00;5.70;;;;;;;;;;6242098;28;20061;-73
2023/04/06 02:44:22;;;;;;;10.68;6.68;;;;;;;;;;6242102;28;20056;-72
2023/04/06 02:47:24;;;;;;;9.23;6.43;;;;;;;;;;6240636;28;20068;-72
2023/04/06 02:50:25;;;;;;;10.93;6.25;;;;;;;;;;6241780;28;20048;-72
2023/04/06 02:53:29;;;;;;;12.32;6.72;;;;;;;;;;6241812;28;20069;-71
2023/04/06 02:56:30;;;;;;;11.53;6.50;;;;;;;;;;6242658;28;20246;-72
2023/04/06 02:59:33;;;;;;;10.57;6.07;;;;;;;;;;6240293;28;20049;-72
2023/04/06 03:02:35;;;;;;;10.80;6.28;;;;;;;;;;6240450;28;20256;-71
2023/04/06 03:05:37;;;;;;;9.50;6.10;;;;;;;;;;6240968;28;20057;-72
2023/04/06 03:08:40;;;;;;;11.45;6.60;;;;;;;;;;6239665;28;20241;-71
2023/04/06 03:11:41;;;;;;;9.45;6.10;;;;;;;;;;6241615;28;20058;-71
2023/04/06 03:14:43;;;;;;;11.45;6.05;;;;;;;;;;6241748;28;20064;-72
2023/04/06 03:17:45;;;;;;;8.48;5.88;;;;;;;;;;6241213;28;20053;-72
2023/04/06 03:20:47;;;;;;;11.48;5.90;;;;;;;;;;6238464;28;20045;-72
2023/04/06 03:23:51;;;;;;;11.07;5.70;;;;;;;;;;6238066;28;20085;-73
2023/04/06 03:26:52;;;;;;;8.75;5.60;;;;;;;;;;6242515;28;20065;-72
2023/04/06 03:29:54;;;;;;;9.70;5.53;;;;;;;;;;6239225;28;20345;-72
2023/04/06 03:32:56;;;;;;;9.63;6.18;;;;;;;;;;6239536;28;20081;-71
2023/04/06 03:35:57;;;;;;;12.65;6.28;;;;;;;;;;6238023;28;20038;-72
2023/04/06 03:39:00;;;;;;;11.90;6.00;;;;;;;;;;6239235;28;20053;-71
2023/04/06 03:42:02;;;;;;;11.60;6.50;;;;;;;;;;6241870;28;20057;-72
2023/04/06 03:45:04;;;;;;;9.85;5.93;;;;;;;;;;6239320;28;20056;-72
2023/04/06 03:48:06;;;;;;;13.80;5.80;;;;;;;;;;6239595;28;20067;-72
2023/04/06 03:51:08;;;;;;;10.48;5.25;;;;;;;;;;6239678;28;20053;-72
2023/04/06 03:54:11;;;;;;;10.30;5.22;;;;;;;;;;6240593;28;20065;-72
2023/04/06 03:57:13;;;;;;;10.82;6.00;;;;;;;;;;6239361;28;20392;-72
2023/04/06 04:00:15;;;;;;;10.32;5.45;;;;;;;;;;6241015;28;20245;-71
2023/04/06 04:03:17;;;;;;;8.40;5.63;;;;;;;;;;6240228;28;20050;-71
2023/04/06 04:06:19;;;;;;;9.15;6.13;;;;;;;;;;6240184;28;20057;-72
2023/04/06 04:09:22;;;;;;;11.77;5.55;;;;;;;;;;6239886;28;20383;-72
2023/04/06 04:12:24;;;;;;;9.52;5.90;;;;;;;;;;6240773;28;20049;-72
2023/04/06 04:15:25;;;;;;;12.48;7.15;;;;;;;;;;6240339;28;20061;-72
2023/04/06 04:18:27;;;;;;;8.80;6.20;;;;;;;;;;6239010;28;20061;-73
2023/04/06 04:21:31;;;;;;;9.38;5.30;;;;;;;;;;6240126;28;20053;-72
2023/04/06 04:24:34;;;;;;;10.47;5.60;;;;;;;;;;6240509;28;20395;-72
2023/04/06 04:27:35;;;;;;;11.02;6.18;;;;;;;;;;6237720;28;20878;-71
2023/04/06 04:30:37;;;;;;;10.40;5.82;;;;;;;;;;6241330;28;20341;-71
2023/04/06 04:33:39;;;;;;;10.52;5.75;;;;;;;;;;6237836;28;20077;-71
2023/04/06 04:36:41;;;;;;;9.75;5.80;;;;;;;;;;6237303;28;20046;-72
2023/04/06 04:39:45;;;;;;;7.90;5.28;;;;;;;;;;6242063;28;20265;-72
2023/04/06 04:42:47;;;;;;;9.35;5.85;;;;;;;;;;6240066;28;20059;-71
2023/04/06 04:45:49;;;;;;;13.25;6.95;;;;;;;;;;6237542;28;20056;-71
2023/04/06 04:48:50;;;;;;;11.48;5.90;;;;;;;;;;6235632;28;20356;-72
2023/04/06 04:51:52;;;;;;;10.80;5.18;;;;;;;;;;6239605;28;20049;-71
2023/04/06 04:54:55;;;;;;;10.63;5.53;;;;;;;;;;6238470;28;20242;-72
2023/04/06 04:57:57;;;;;;;14.82;5.82;;;;;;;;;;6238896;28;20069;-72
2023/04/06 05:00:59;;;;;;;11.05;5.40;;;;;;;;;;6237880;28;20050;-72
2023/04/06 05:04:00;;;;;;;11.80;5.65;;;;;;;;;;6241147;28;20507;-71
2023/04/06 05:07:06;;;;;;;8.85;5.47;;;;;;;;;;6240831;28;20061;-71
2023/04/06 05:10:10;;;;;;;15.30;6.00;;;;;;;;;;6243529;28;20058;-71
2023/04/06 05:13:12;;;;;;;10.68;5.63;;;;;;;;;;6240110;28;20056;-72
2023/04/06 05:16:14;;;;;;;10.30;5.50;;;;;;;;;;6241151;28;20045;-72
2023/04/06 05:19:16;;;;;;;9.40;5.93;;;;;;;;;;6243317;28;20845;-71
2023/04/06 05:22:17;;;;;;;10.52;5.88;;;;;;;;;;6242474;28;20258;-72
2023/04/06 05:25:21;;;;;;;11.23;5.75;;;;;;;;;;6242534;28;20052;-72
2023/04/06 05:28:23;;;;;;;12.75;6.40;;;;;;;;;;6243246;28;20053;-72
2023/04/06 05:31:24;;;;;;;8.38;5.40;;;;;;;;;;6240208;28;20057;-72
2023/04/06 05:34:26;;;;;;;10.55;5.75;;;;;;;;;;6241550;28;20099;-72
2023/04/06 05:37:28;;;;;;;58.95;8.88;;;;;;;;;;6240958;28;20068;-72
2023/04/06 05:40:31;;;;;;;15.90;6.63;;;;;;;;;;6241064;28;20343;-72
2023/04/06 05:43:33;;;;;;;15.00;6.18;;;;;;;;;;6243103;28;20112;-72
2023/04/06 05:46:34;;;;;;;9.90;6.00;;;;;;;;;;6241303;28;20053;-72
2023/04/06 05:49:36;;;;;;;12.70;5.72;;;;;;;;;;6240889;28;20068;-73
2023/04/06 05:52:38;;;;;;;10.43;6.07;;;;;;;;;;6243540;28;20053;-72
2023/04/06 05:55:41;;;;;;;13.55;5.57;;;;;;;;;;6241411;28;20124;-72
2023/04/06 05:58:43;;;;;;;10.05;5.82;;;;;;;;;;6241475;28;20293;-72
2023/04/06 06:01:45;;;;;;;12.98;5.60;;;;;;;;;;6239100;28;20068;-73
2023/04/06 06:04:46;;;;;;;10.25;5.45;;;;;;;;;;6243335;28;20057;-73
2023/04/06 06:07:48;;;;;;;14.02;5.75;;;;;;;;;;6240531;28;20067;-72
2023/04/06 06:10:51;;;;;;;12.10;5.60;;;;;;;;;;6237930;28;20235;-72
2023/04/06 06:13:53;;;;;;;11.38;5.07;;;;;;;;;;6242036;28;20049;-72
2023/04/06 06:16:55;;;;;;;9.85;5.20;;;;;;;;;;6242124;28;20064;-73
2023/04/06 06:19:56;;;;;;;10.30;5.53;;;;;;;;;;6243309;28;20056;-72
2023/04/06 06:22:58;;;;;;;16.48;5.80;;;;;;;;;;6238181;28;20367;-72
2023/04/06 06:26:01;;;;;;;9.10;5.68;;;;;;;;;;6241480;28;20226;-72
2023/04/06 06:29:04;;;;;;;11.30;6.32;;;;;;;;;;6239952;28;20054;-72
2023/04/06 06:32:06;;;;;;;9.45;5.03;;;;;;;;;;6239364;28;20053;-72
2023/04/06 06:35:08;;;;;;;13.02;5.47;;;;;;;;;;6240140;28;20077;-72
2023/04/06 06:38:10;;;;;;;15.85;5.80;;;;;;;;;;6240047;28;20053;-73
2023/04/06 06:41:13;;;;;;;12.82;5.95;;;;;;;;;;6241597;28;20071;-72
2023/04/06 06:44:16;;;;;;;11.15;5.40;;;;;;;;;;6243187;28;20053;-72
2023/04/06 06:47:18;;;;;;;10.68;5.43;;;;;;;;;;6241636;28;20084;-73
2023/04/06 06:50:19;;;;;;;10.50;5.88;;;;;;;;;;6217375;28;20251;-72
2023/04/06 06:53:21;;;;;;;9.88;5.38;;;;;;;;;;6219555;28;20057;-72
2023/04/06 06:56:26;;;;;;;10.27;5.22;;;;;;;;;;6217180;28;20124;-72
2023/04/06 06:59:28;;;;;;;8.93;4.80;;;;;;;;;;6218720;28;20324;-72
2023/04/06 07:02:30;;;;;;;11.40;5.95;;;;;;;;;;6214842;28;20337;-72
2023/04/06 07:05:31;;;;;;;11.52;6.00;;;;;;;;;;6217231;28;20050;-72
2023/04/06 07:08:33;;;;;;;11.73;6.10;;;;;;;;;;6219137;28;20077;-72
2023/04/06 07:11:36;;;;;;;10.48;6.05;;;;;;;;;;6218272;28;20062;-73
2023/04/06 07:14:38;;;;;;;9.80;5.23;;;;;;;;;;6217096;28;20101;-72
2023/04/06 07:17:41;;;;;;;9.88;5.15;;;;;;;;;;6216807;28;20463;-72
2023/04/06 07:20:43;;;;;;;8.50;5.57;;;;;;;;;;6216195;28;20081;-72
2023/04/06 07:23:45;;;;;;;10.07;5.60;;;;;;;;;;6218291;28;20059;-72
2023/04/06 07:26:48;;;;;;;11.18;6.18;;;;;;;;;;6220437;28;20058;-72
2023/04/06 07:29:50;;;;;;;8.55;5.50;;;;;;;;;;6215649;28;20136;-72
2023/04/06 07:32:52;;;;;;;8.77;5.80;;;;;;;;;;6215233;28;20433;-72
2023/04/06 07:35:53;;;;;;;10.50;5.25;;;;;;;;;;6216763;28;20039;-72
2023/04/06 07:38:55;;;;;;;7.80;5.55;;;;;;;;;;6218683;28;20058;-72
2023/04/06 07:41:58;;;;;;;7.60;5.00;;;;;;;;;;6217351;28;20046;-72
2023/04/06 07:45:00;;;;;;;9.45;5.38;;;;;;;;;;6220081;28;20049;-73
2023/04/06 07:48:02;;;;;;;7.10;5.28;;;;;;;;;;6221787;28;20073;-71
2023/04/06 07:51:04;;;;;;;10.38;5.35;;;;;;;;;;6239950;28;20046;-72
2023/04/06 07:54:06;;;;;;;10.40;5.55;;;;;;;;;;6241944;28;20100;-72
2023/04/06 07:57:09;;;;;;;9.10;5.78;;;;;;;;;;6239405;28;20334;-75
2023/04/06 08:00:12;;;;;;;10.13;4.77;;;;;;;;;;6241763;28;20096;-72
2023/04/06 08:03:14;;;;;;;6.57;4.83;;;;;;;;;;6238932;28;20469;-72
2023/04/06 08:06:16;;;;;;;6.97;4.75;;;;;;;;;;6241294;28;20053;-72
2023/04/06 08:09:18;;;;;;;7.38;4.38;;;;;;;;;;6239569;28;20053;-73
2023/04/06 08:12:21;;;;;;;6.80;4.07;;;;;;;;;;6241477;28;20057;-72
2023/04/06 08:15:23;;;;;;;8.05;4.43;;;;;;;;;;6238043;28;20056;-72
2023/04/06 08:18:24;;;;;;;5.00;3.70;;;;;;;;;;6241678;28;20737;-71
2023/04/06 08:21:26;;;;;;;7.40;4.05;;;;;;;;;;6241008;28;20058;-74
2023/04/06 08:24:28;;;;;;;5.05;4.18;;;;;;;;;;6240276;28;20546;-71
2023/04/06 08:27:31;;;;;;;9.80;4.47;;;;;;;;;;6239821;28;20060;-71
2023/04/06 08:30:33;;;;;;;6.32;4.50;;;;;;;;;;6240621;28;20057;-73
2023/04/06 08:33:36;;;;;;;5.93;4.18;;;;;;;;;;6240017;28;20045;-73
2023/04/06 08:36:38;;;;;;;6.82;4.65;;;;;;;;;;6240586;28;20052;-73
2023/04/06 08:39:40;;;;;;;6.97;4.32;;;;;;;;;;6242312;28;20061;-72
2023/04/06 08:42:49;;;;;;;10.13;4.70;;;;;;;;;;6247863;28;20245;-73
2023/04/06 08:45:51;;;;;;;7.60;4.63;;;;;;;;;;6242998;28;20060;-73
2023/04/06 08:48:53;;;;;;;12.40;5.47;;;;;;;;;;6243642;28;20068;-73
2023/04/06 08:51:55;;;;;;;10.38;4.88;;;;;;;;;;6244224;28;20387;-73
2023/04/06 08:54:57;;;;;;;7.78;4.88;;;;;;;;;;6244482;28;20137;-73
2023/04/06 08:58:00;;;;;;;8.10;4.93;;;;;;;;;;6244559;28;20059;-73
2023/04/06 09:01:03;;;;;;;11.88;5.60;;;;;;;;;;6245693;28;20057;-73
2023/04/06 09:04:08;;;;;;;10.35;5.88;;;;;;;;;;6242408;28;20057;-73
2023/04/06 09:07:10;;;;;;;8.63;5.57;;;;;;;;;;6243069;28;20081;-73
2023/04/06 09:10:12;;;;;;;6.88;5.25;;;;;;;;;;6243540;28;20087;-73
2023/04/06 09:13:15;;;;;;;9.77;5.88;;;;;;;;;;6243405;28;20211;-73
2023/04/06 09:16:18;;;;;;;13.30;6.25;;;;;;;;;;6249933;28;20125;-73
2023/04/06 09:19:20;;;;;;;9.07;5.68;;;;;;;;;;6247406;28;20334;-72
2023/04/06 09:22:21;;;;;;;10.98;5.78;;;;;;;;;;6245957;28;20053;-74
2023/04/06 09:25:26;;;;;;;8.35;5.50;;;;;;;;;;6243537;28;20052;-71
2023/04/06 09:28:29;;;;;;;12.73;5.90;;;;;;;;;;6243874;28;20062;-72
2023/04/06 09:31:32;;;;;;;10.60;5.83;;;;;;;;;;6243428;28;20054;-75
2023/04/06 09:34:34;;;;;;;10.45;5.90;;;;;;;;;;6242016;28;20473;-75
2023/04/06 09:37:36;;;;;;;8.27;4.90;;;;;;;;;;6241874;28;20080;-75
2023/04/06 09:40:48;;;;;;;6.53;5.28;;;;;;;;;;6243932;28;20238;-75
2023/04/06 09:43:52;;;;;;;8.40;5.70;;;;;;;;;;6241639;28;20112;-74
2023/04/06 09:46:54;;;;;;;;;;;;;;;;;;6244897;28;20400;-75
2023/04/06 09:49:57;;;;;;;8.18;5.97;;;;;;;;;;6242438;28;20201;-74
2023/04/06 09:52:59;;;;;;;9.35;6.10;;;;;;;;;;6245742;28;20104;-75
2023/04/06 09:56:03;;;;;;;11.18;6.28;;;;;;;;;;6242868;28;20322;-74
2023/04/06 09:59:10;;;;;;;263.52;25.73;;;;;;;;;;6243314;28;20058;-75
2023/04/06 10:02:19;;;;;;;8.07;5.97;;;;;;;;;;6243985;28;20062;-74
2023/04/06 10:05:24;;;;;;;9.23;6.43;;;;;;;;;;6245374;28;20160;-74
2023/04/06 10:08:28;;;;;;;7.88;5.90;;;;;;;;;;6244295;28;20248;-74
2023/04/06 10:11:30;;;;;;;10.77;5.53;;;;;;;;;;6243647;28;20076;-74
2023/04/06 10:14:35;;;;;;;8.23;5.60;;;;;;;;;;6245207;28;20061;-73
2023/04/06 10:17:37;;;;;;;9.93;6.60;;;;;;;;;;6243733;28;20053;-74
2023/04/06 10:20:42;;;;;;;19.63;6.80;;;;;;;;;;6238731;28;20053;-73
2023/04/06 10:23:47;;;;;;;8.88;6.72;;;;;;;;;;6237998;28;20132;-72
2023/04/06 10:26:58;;;;;;;15.07;6.55;;;;;;;;;;6243226;28;20045;-73
2023/04/06 10:30:07;;;;;;;9.65;6.90;;;;;;;;;;6236421;28;20103;-73
2023/04/06 10:33:15;;;;;;;10.25;6.18;;;;;;;;;;6242969;28;20081;-73
2023/04/06 10:36:23;;;;;;;9.00;6.43;;;;;;;;;;6241224;28;20068;-73
2023/04/06 10:39:26;;;;;;;8.70;6.60;;;;;;;;;;6243354;28;20321;-72
2023/04/06 10:42:38;;;;;;;13.95;6.60;;;;;;;;;;6241783;28;20104;-72
2023/04/06 10:45:42;;;;;;;8.88;6.38;;;;;;;;;;6244633;28;20102;-73
2023/04/06 10:48:46;;;;;;;11.55;6.45;;;;;;;;;;6242520;28;20053;-73
2023/04/06 10:51:53;;;;;;;9.60;6.90;;;;;;;;;;6241529;28;20053;-73
2023/04/06 10:54:56;;;;;;;11.98;7.15;;;;;;;;;;6241236;28;20057;-73
2023/04/06 10:57:58;;;;;;;9.35;6.55;;;;;;;;;;6242229;28;20049;-73
2023/04/06 11:01:01;;;;;;;10.32;6.00;;;;;;;;;;6239653;28;20045;-73
2023/04/06 11:04:03;;;;;;;10.93;6.50;;;;;;;;;;6239546;28;20210;-75
2023/04/06 11:07:05;;;;;;;7.93;5.95;;;;;;;;;;6239788;28;20057;-72
2023/04/06 11:13:27;;;;;;;9.80;6.55;;;;;;;;;;6236037;28;20068;-74
2023/04/06 11:16:32;;;;;;;10.20;7.07;;;;;;;;;;6241190;28;20053;-72
2023/04/06 11:19:35;;;;;;;11.63;6.72;;;;;;;;;;6240683;28;20072;-72
2023/04/06 11:22:48;;;;;;;11.93;6.55;;;;;;;;;;6240998;28;20069;-73
2023/04/06 11:25:52;;;;;;;18.20;8.47;;;;;;;;;;6241929;28;20152;-73
2023/04/06 11:28:55;;;;;;;19.13;8.77;;;;;;;;;;6240763;28;21124;-72
2023/04/06 11:32:05;;;;;;;11.43;6.97;;;;;;;;;;6246162;28;20060;-74
2023/04/06 11:35:11;;;;;;;12.07;7.05;;;;;;;;;;6243951;28;20049;-72
2023/04/06 11:38:14;;;;;;;11.65;6.63;;;;;;;;;;6247160;28;20069;-72
2023/04/06 11:41:15;;;;;;;9.20;7.00;;;;;;;;;;6246135;28;20045;-72
2023/04/06 11:44:30;;;;;;;8.73;6.93;;;;;;;;;;6245027;28;20069;-72
2023/04/06 11:47:34;;;;;;;10.88;6.97;;;;;;;;;;6242821;28;20062;-72
2023/04/06 11:50:36;;;;;;;15.05;6.93;;;;;;;;;;6246534;28;20052;-71
2023/04/06 11:53:45;;;;;;;8.10;6.90;;;;;;;;;;6245024;28;20049;-72
2023/04/06 11:56:47;;;;;;;12.75;7.10;;;;;;;;;;6246231;28;20053;-73
2023/04/06 11:59:49;;;;;;;10.20;7.05;;;;;;;;;;6246242;28;20049;-72
2023/04/06 12:02:52;;;;;;;8.45;7.05;;;;;;;;;;6245205;28;20061;-72
2023/04/06 12:05:53;;;;;;;10.82;7.68;;;;;;;;;;6245038;28;20041;-73
2023/04/06 12:08:55;;;;;;;10.90;8.05;;;;;;;;;;6245293;28;20054;-74
2023/04/06 12:11:57;;;;;;;12.00;7.55;;;;;;;;;;6244765;28;20113;-73
2023/04/06 12:14:59;;;;;;;12.52;6.85;;;;;;;;;;6244805;28;20053;-73
2023/04/06 12:18:02;;;;;;;10.88;8.02;;;;;;;;;;6247133;28;20108;-73
2023/04/06 12:21:05;;;;;;;12.05;7.22;;;;;;;;;;6243886;28;20395;-73
2023/04/06 12:24:08;;;;;;;11.30;8.00;;;;;;;;;;6244641;28;20064;-74
2023/04/06 12:27:11;;;;;;;10.63;7.67;;;;;;;;;;6244197;28;20079;-73
2023/04/06 12:30:13;;;;;;;9.93;7.68;;;;;;;;;;6241297;28;20077;-74
2023/04/06 12:33:16;;;;;;;11.10;7.82;;;;;;;;;;6238424;28;20049;-74
2023/04/06 12:36:21;;;;;;;11.48;8.13;;;;;;;;;;6242636;28;20356;-74
2023/04/06 12:39:22;;;;;;;14.00;8.05;;;;;;;;;;6241229;28;20321;-72
2023/04/06 12:42:24;;;;;;;21.70;8.68;;;;;;;;;;6240599;28;20054;-73
2023/04/06 12:45:26;;;;;;;19.48;9.05;;;;;;;;;;6236295;28;20625;-74
2023/04/06 12:48:29;;;;;;;12.27;8.45;;;;;;;;;;6237894;28;20045;-74
2023/04/06 12:51:31;;;;;;;12.02;8.98;;;;;;;;;;6244319;28;20113;-73
2023/04/06 12:54:33;;;;;;;14.13;8.77;;;;;;;;;;6239118;28;20056;-73
2023/04/06 12:57:36;;;;;;;13.85;8.75;;;;;;;;;;6240454;28;20057;-71
2023/04/06 13:00:38;;;;;;;11.05;7.82;;;;;;;;;;6241327;28;20253;-73
2023/04/06 13:03:42;;;;;;;11.27;8.43;;;;;;;;;;6239264;28;20171;-74
2023/04/06 13:06:43;;;;;;;13.00;8.38;;;;;;;;;;6242901;28;20272;-74
2023/04/06 13:09:47;;;;;;;14.05;8.63;;;;;;;;;;6239913;28;20305;-73
2023/04/06 13:12:48;;;;;;;11.77;8.02;;;;;;;;;;6237836;28;20254;-73
2023/04/06 13:15:50;;;;;;;11.10;7.72;;;;;;;;;;6239579;28;20204;-72
2023/04/06 13:18:53;;;;;;;9.40;7.78;;;;;;;;;;6240111;28;20045;-73
2023/04/06 13:21:56;;;;;;;9.85;8.13;;;;;;;;;;6239369;28;20215;-73
2023/04/06 13:24:58;;;;;;;13.57;7.90;;;;;;;;;;6239859;28;20071;-73
2023/04/06 13:28:00;;;;;;;11.45;8.27;;;;;;;;;;6244279;28;20049;-73
2023/04/06 13:31:03;;;;;;;11.43;8.50;;;;;;;;;;6243950;28;21055;-74
2023/04/06 13:34:06;;;;;;;11.10;8.93;;;;;;;;;;6242140;28;20053;-74
2023/04/06 13:37:07;;;;;;;18.45;8.73;;;;;;;;;;6243653;28;20074;-74
2023/04/06 13:40:10;;;;;;;13.68;8.60;;;;;;;;;;6245921;28;20058;-74
2023/04/06 13:43:12;;;;;;;9.98;7.85;;;;;;;;;;6245400;28;20057;-73
2023/04/06 13:46:13;;;;;;;12.95;8.70;;;;;;;;;;6243824;28;20234;-74
2023/04/06 13:49:16;;;;;;;13.65;8.75;;;;;;;;;;6244988;28;20053;-72
2023/04/06 13:52:18;;;;;;;13.68;9.18;;;;;;;;;;6245302;28;20053;-73
2023/04/06 13:55:20;;;;;;;17.83;9.27;;;;;;;;;;6242004;28;20049;-73
2023/04/06 13:58:22;;;;;;;13.48;9.38;;;;;;;;;;6242193;28;20087;-73
2023/04/06 14:01:24;;;;;;;15.75;8.38;;;;;;;;;;6244121;28;20087;-73
2023/04/06 14:04:27;;;;;;;13.13;9.00;;;;;;;;;;6245389;28;20301;-74
2023/04/06 14:07:29;;;;;;;14.35;8.23;;;;;;;;;;6243464;28;20314;-75
2023/04/06 14:10:31;;;;;;;12.82;7.35;;;;;;;;;;6243161;28;20056;-73
2023/04/06 14:13:32;;;;;;;13.07;7.28;;;;;;;;;;6244100;28;20364;-73
2023/04/06 14:16:34;;;;;;;12.68;7.43;;;;;;;;;;6243241;28;20054;-72
2023/04/06 14:19:37;;;;;;;11.60;7.43;;;;;;;;;;6242354;28;20050;-72
2023/04/06 14:22:40;;;;;;;20.27;7.95;;;;;;;;;;6244063;28;20112;-73
2023/04/06 14:25:41;;;;;;;11.40;7.60;;;;;;;;;;6244311;28;20057;-73
2023/04/06 14:28:43;;;;;;;13.93;7.65;;;;;;;;;;6244815;28;20050;-72
2023/04/06 14:31:47;;;;;;;10.98;7.28;;;;;;;;;;6240009;28;20042;-73
2023/04/06 14:34:51;;;;;;;9.32;7.20;;;;;;;;;;6243727;28;20057;-72
2023/04/06 14:37:52;;;;;;;10.10;7.50;;;;;;;;;;6240246;28;20042;-74
2023/04/06 14:40:55;;;;;;;10.32;8.02;;;;;;;;;;6243212;28;20340;-72
2023/04/06 14:43:56;;;;;;;9.70;8.07;;;;;;;;;;6243672;28;20059;-73
2023/04/06 14:46:58;;;;;;;10.30;7.97;;;;;;;;;;6244966;28;20050;-73
2023/04/06 14:50:01;;;;;;;12.30;8.70;;;;;;;;;;6242350;28;20092;-72
2023/04/06 14:53:03;;;;;;;12.13;7.82;;;;;;;;;;6242366;28;20052;-73
2023/04/06 14:56:05;;;;;;;14.35;8.00;;;;;;;;;;6245426;28;20377;-72
2023/04/06 14:59:07;;;;;;;10.52;7.35;;;;;;;;;;6242488;28;20065;-72
2023/04/06 15:02:08;;;;;;;14.27;8.15;;;;;;;;;;6242481;28;20103;-73
2023/04/06 15:05:11;;;;;;;9.93;6.97;;;;;;;;;;6242557;28;20399;-72
2023/04/06 15:08:14;;;;;;;15.98;7.07;;;;;;;;;;6242758;28;20112;-72
2023/04/06 15:11:16;;;;;;;27.75;9.10;;;;;;;;;;6246275;28;20068;-73
2023/04/06 15:14:18;;;;;;;11.45;7.65;;;;;;;;;;6240083;28;20341;-73
2023/04/06 15:17:19;;;;;;;9.65;7.25;;;;;;;;;;6241707;28;20064;-73
2023/04/06 15:20:22;;;;;;;10.55;6.82;;;;;;;;;;6245455;28;20045;-72
2023/04/06 15:23:24;;;;;;;9.88;7.13;;;;;;;;;;6242075;28;20310;-73
2023/04/06 15:26:27;;;;;;;11.68;6.55;;;;;;;;;;6242158;28;20084;-72
2023/04/06 15:29:28;;;;;;;9.43;7.15;;;;;;;;;;6240861;28;20065;-73
2023/04/06 15:32:30;;;;;;;11.23;7.28;;;;;;;;;;6241390;28;20069;-74
2023/04/06 15:35:39;;;;;;;8.07;6.75;;;;;;;;;;6242099;28;20057;-73
2023/04/06 15:38:41;;;;;;;9.15;6.40;;;;;;;;;;6241767;28;20045;-72
2023/04/06 15:41:42;;;;;;;16.17;7.35;;;;;;;;;;6239056;28;20045;-73
2023/04/06 15:44:44;;;;;;;22.08;7.97;;;;;;;;;;6241140;28;20057;-73
2023/04/06 15:47:46;;;;;;;18.60;7.55;;;;;;;;;;6238875;28;20301;-74
2023/04/06 15:50:49;;;;;;;26.67;7.55;;;;;;;;;;6240221;28;20104;-72
2023/04/06 15:53:51;;;;;;;9.38;6.55;;;;;;;;;;6241496;28;20053;-72
2023/04/06 15:56:55;;;;;;;12.00;6.40;;;;;;;;;;6239825;28;20050;-73
2023/04/06 15:59:57;;;;;;;11.98;7.13;;;;;;;;;;6241442;28;20058;-72
2023/04/06 16:02:59;;;;;;;9.85;6.97;;;;;;;;;;6242123;28;20061;-72
2023/04/06 16:06:02;;;;;;;14.30;7.60;;;;;;;;;;6241499;28;20379;-73
2023/04/06 16:09:04;;;;;;;9.60;6.57;;;;;;;;;;6240178;28;20042;-73
2023/04/06 16:12:06;;;;;;;12.80;7.25;;;;;;;;;;6242410;28;20058;-73
2023/04/06 16:15:08;;;;;;;18.55;7.63;;;;;;;;;;6239319;28;20119;-74
2023/04/06 16:18:10;;;;;;;9.38;6.20;;;;;;;;;;6238481;28;20045;-71
2023/04/06 16:21:15;;;;;;;8.65;6.63;;;;;;;;;;6237740;28;20360;-73
2023/04/06 16:24:17;;;;;;;8.82;6.60;;;;;;;;;;6233565;28;20077;-73
2023/04/06 16:27:19;;;;;;;15.95;6.28;;;;;;;;;;6238927;28;20056;-72
2023/04/06 16:30:21;;;;;;;12.05;6.90;;;;;;;;;;6243295;28;20375;-73
2023/04/06 16:33:23;;;;;;;12.77;8.13;;;;;;;;;;6242025;28;20048;-73
2023/04/06 16:36:27;;;;;;;10.05;6.68;;;;;;;;;;6242393;28;20061;-74
2023/04/06 16:39:29;;;;;;;202.57;101.93;;;;;;;;;;6245103;28;20060;-73
2023/04/06 16:42:30;;;;;;;236.13;130.02;;;;;;;;;;6231256;28;20054;-73
2023/04/06 16:45:32;;;;;;;255.05;132.15;;;;;;;;;;6239278;28;20265;-75
2023/04/06 16:48:34;;;;;;;19.88;12.77;;;;;;;;;;6240187;28;20057;-73
2023/04/06 16:51:37;;;;;;;13.77;7.72;;;;;;;;;;6238911;28;20049;-72
2023/04/06 16:54:38;;;;;;;13.57;7.67;;;;;;;;;;6237953;28;20100;-72
2023/04/06 16:57:40;;;;;;;11.82;7.45;;;;;;;;;;6238389;28;20042;-73
2023/04/06 17:00:42;;;;;;;12.65;8.00;;;;;;;;;;6242795;28;20049;-71
2023/04/06 17:03:44;;;;;;;12.73;7.88;;;;;;;;;;6245167;28;20049;-72
2023/04/06 17:06:48;;;;;;;14.02;8.00;;;;;;;;;;6245450;28;20253;-72
2023/04/06 17:09:49;;;;;;;11.20;8.38;;;;;;;;;;6243365;28;20061;-73
2023/04/06 17:12:51;;;;;;;10.18;7.53;;;;;;;;;;6241862;28;20352;-73
2023/04/06 17:15:52;;;;;;;15.50;7.78;;;;;;;;;;6242920;28;20206;-73
2023/04/06 17:18:54;;;;;;;12.13;7.95;;;;;;;;;;6243411;28;20129;-72
2023/04/06 17:21:57;;;;;;;14.88;8.68;;;;;;;;;;6241680;28;20100;-73
2023/04/06 17:25:01;;;;;;;12.63;8.07;;;;;;;;;;6242271;28;20057;-73
2023/04/06 17:28:03;;;;;;;16.70;9.07;;;;;;;;;;6243688;28;20049;-73
2023/04/06 17:31:09;;;;;;;12.13;7.97;;;;;;;;;;6232798;28;20333;-73
2023/04/06 17:34:10;;;;;;;12.48;8.23;;;;;;;;;;6242043;28;20064;-73
2023/04/06 17:37:14;;;;;;;12.18;8.13;;;;;;;;;;6242114;28;20353;-72
2023/04/06 17:40:15;;;;;;;14.15;7.32;;;;;;;;;;6245771;28;20046;-72
2023/04/06 17:43:18;;;;;;;13.07;8.02;;;;;;;;;;6241425;28;20061;-73
2023/04/06 17:46:20;;;;;;;13.70;8.02;;;;;;;;;;6242288;28;20365;-74
2023/04/06 17:49:22;;;;;;;12.63;8.30;;;;;;;;;;6243071;28;20053;-73
2023/04/06 17:52:27;;;;;;;14.30;7.95;;;;;;;;;;6242452;28;20225;-73
2023/04/06 17:55:29;;;;;;;13.05;8.57;;;;;;;;;;6242593;28;20139;-72
2023/04/06 17:58:31;;;;;;;15.25;8.25;;;;;;;;;;6244843;28;20061;-74
2023/04/06 18:01:32;;;;;;;14.68;8.88;;;;;;;;;;6243215;28;20112;-75
2023/04/06 18:04:34;;;;;;;13.88;8.23;;;;;;;;;;6242119;28;20061;-72
2023/04/06 18:07:37;;;;;;;14.30;8.10;;;;;;;;;;6242067;28;20111;-72